sensor_id;sensor_type;location;lat;lon;timestamp;pressure;altitude;pressure_sealevel;temperature;humidity
64189;BME280;50493;50.970;10.082;2022-08-23T00:00:40;99266.38;;;23.14;35.68
64189;BME280;50493;50.970;10.082;2022-08-23T00:03:07;99262.88;;;23.13;35.36
64189;BME280;50493;50.970;10.082;2022-08-23T00:05:33;99258.50;;;23.12;35.21
64189;BME280;50493;50.970;10.082;2022-08-23T00:07:58;99264.06;;;23.09;35.15
64189;BME280;50493;50.970;10.082;2022-08-23T00:10:24;99255.72;;;23.14;35.04
64189;BME280;50493;50.970;10.082;2022-08-23T00:12:49;99248.75;;;23.00;35.79
64189;BME280;50493;50.970;10.082;2022-08-23T00:15:18;99253.31;;;22.98;35.40
64189;BME280;50493;50.970;10.082;2022-08-23T00:17:44;99257.56;;;22.89;35.54
64189;BME280;50493;50.970;10.082;2022-08-23T00:20:14;99256.94;;;22.85;35.63
64189;BME280;50493;50.970;10.082;2022-08-23T00:22:40;99252.34;;;22.87;35.73
64189;BME280;50493;50.970;10.082;2022-08-23T00:25:08;99243.59;;;22.85;35.60
64189;BME280;50493;50.970;10.082;2022-08-23T00:27:33;99244.41;;;22.75;35.73
64189;BME280;50493;50.970;10.082;2022-08-23T00:30:00;99244.00;;;22.68;36.13
64189;BME280;50493;50.970;10.082;2022-08-23T00:32:28;99251.53;;;22.63;35.90
64189;BME280;50493;50.970;10.082;2022-08-23T00:34:54;99247.34;;;22.59;36.42
64189;BME280;50493;50.970;10.082;2022-08-23T00:37:22;99249.31;;;22.57;36.38
64189;BME280;50493;50.970;10.082;2022-08-23T00:39:48;99245.41;;;22.49;36.11
64189;BME280;50493;50.970;10.082;2022-08-23T00:42:28;99241.94;;;22.36;36.77
64189;BME280;50493;50.970;10.082;2022-08-23T00:45:18;99246.50;;;22.34;36.59
64189;BME280;50493;50.970;10.082;2022-08-23T00:48:04;99235.53;;;22.26;36.67
64189;BME280;50493;50.970;10.082;2022-08-23T00:50:35;99242.16;;;22.20;36.75
64189;BME280;50493;50.970;10.082;2022-08-23T00:53:08;99244.19;;;22.16;36.77
64189;BME280;50493;50.970;10.082;2022-08-23T00:55:37;99241.00;;;22.11;36.66
64189;BME280;50493;50.970;10.082;2022-08-23T00:58:05;99240.28;;;22.09;36.68
64189;BME280;50493;50.970;10.082;2022-08-23T01:00:33;99237.09;;;22.04;36.98
64189;BME280;50493;50.970;10.082;2022-08-23T01:03:00;99236.16;;;22.05;36.83
64189;BME280;50493;50.970;10.082;2022-08-23T01:05:35;99235.63;;;22.00;36.92
64189;BME280;50493;50.970;10.082;2022-08-23T01:08:08;99243.06;;;21.95;36.91
64189;BME280;50493;50.970;10.082;2022-08-23T01:10:36;99236.19;;;21.79;37.27
64189;BME280;50493;50.970;10.082;2022-08-23T01:13:08;99237.91;;;21.80;37.28
64189;BME280;50493;50.970;10.082;2022-08-23T01:15:37;99247.69;;;21.80;37.29
64189;BME280;50493;50.970;10.082;2022-08-23T01:18:07;99246.31;;;21.74;37.32
64189;BME280;50493;50.970;10.082;2022-08-23T01:20:37;99249.19;;;21.71;37.34
64189;BME280;50493;50.970;10.082;2022-08-23T01:23:18;99246.66;;;21.69;37.16
64189;BME280;50493;50.970;10.082;2022-08-23T01:25:45;99253.41;;;21.61;37.22
64189;BME280;50493;50.970;10.082;2022-08-23T01:28:10;99252.56;;;21.60;37.25
64189;BME280;50493;50.970;10.082;2022-08-23T01:30:36;99252.28;;;21.65;37.08
64189;BME280;50493;50.970;10.082;2022-08-23T01:33:05;99258.72;;;21.61;37.33
64189;BME280;50493;50.970;10.082;2022-08-23T01:35:35;99252.69;;;21.59;37.24
64189;BME280;50493;50.970;10.082;2022-08-23T01:38:02;99245.13;;;21.52;37.38
64189;BME280;50493;50.970;10.082;2022-08-23T01:40:30;99253.22;;;21.51;37.35
64189;BME280;50493;50.970;10.082;2022-08-23T01:42:56;99259.59;;;21.48;37.30
64189;BME280;50493;50.970;10.082;2022-08-23T01:45:21;99260.00;;;21.42;37.55
64189;BME280;50493;50.970;10.082;2022-08-23T01:47:46;99255.13;;;21.36;37.46
64189;BME280;50493;50.970;10.082;2022-08-23T01:50:12;99258.50;;;21.38;37.55
64189;BME280;50493;50.970;10.082;2022-08-23T01:52:39;99256.06;;;21.35;37.50
64189;BME280;50493;50.970;10.082;2022-08-23T01:55:05;99259.78;;;21.32;37.40
64189;BME280;50493;50.970;10.082;2022-08-23T01:57:32;99262.22;;;21.23;37.61
64189;BME280;50493;50.970;10.082;2022-08-23T01:59:59;99261.69;;;21.17;37.63
64189;BME280;50493;50.970;10.082;2022-08-23T02:02:24;99266.13;;;21.04;38.20
64189;BME280;50493;50.970;10.082;2022-08-23T02:04:49;99265.91;;;21.07;37.82
64189;BME280;50493;50.970;10.082;2022-08-23T02:07:15;99262.75;;;21.02;37.93
64189;BME280;50493;50.970;10.082;2022-08-23T02:09:40;99269.94;;;21.00;37.95
64189;BME280;50493;50.970;10.082;2022-08-23T02:12:06;99263.34;;;20.93;38.04
64189;BME280;50493;50.970;10.082;2022-08-23T02:14:33;99272.47;;;20.88;38.25
64189;BME280;50493;50.970;10.082;2022-08-23T02:16:58;99270.50;;;20.78;38.35
64189;BME280;50493;50.970;10.082;2022-08-23T02:19:24;99274.09;;;20.77;38.24
64189;BME280;50493;50.970;10.082;2022-08-23T02:21:51;99273.88;;;20.67;38.49
64189;BME280;50493;50.970;10.082;2022-08-23T02:24:20;99275.97;;;20.62;38.60
64189;BME280;50493;50.970;10.082;2022-08-23T02:26:47;99276.81;;;20.62;38.64
64189;BME280;50493;50.970;10.082;2022-08-23T02:29:14;99278.06;;;20.57;38.69
64189;BME280;50493;50.970;10.082;2022-08-23T02:31:41;99279.97;;;20.54;38.52
64189;BME280;50493;50.970;10.082;2022-08-23T02:34:08;99277.91;;;20.45;38.70
64189;BME280;50493;50.970;10.082;2022-08-23T02:36:35;99279.06;;;20.41;38.89
64189;BME280;50493;50.970;10.082;2022-08-23T02:39:03;99282.41;;;20.30;39.10
64189;BME280;50493;50.970;10.082;2022-08-23T02:41:29;99276.44;;;20.27;39.25
64189;BME280;50493;50.970;10.082;2022-08-23T02:43:55;99273.03;;;20.25;38.87
64189;BME280;50493;50.970;10.082;2022-08-23T02:46:21;99281.84;;;20.25;39.15
64189;BME280;50493;50.970;10.082;2022-08-23T02:48:48;99273.03;;;20.25;38.99
64189;BME280;50493;50.970;10.082;2022-08-23T02:51:14;99281.94;;;20.24;38.89
64189;BME280;50493;50.970;10.082;2022-08-23T02:53:40;99289.66;;;20.14;39.22
64189;BME280;50493;50.970;10.082;2022-08-23T02:56:06;99288.00;;;20.11;39.20
64189;BME280;50493;50.970;10.082;2022-08-23T02:58:31;99288.59;;;20.02;39.32
64189;BME280;50493;50.970;10.082;2022-08-23T03:00:57;99287.06;;;19.98;39.77
64189;BME280;50493;50.970;10.082;2022-08-23T03:03:23;99295.28;;;19.93;39.38
64189;BME280;50493;50.970;10.082;2022-08-23T03:05:50;99286.88;;;19.86;39.77
64189;BME280;50493;50.970;10.082;2022-08-23T03:08:16;99286.13;;;19.84;39.57
64189;BME280;50493;50.970;10.082;2022-08-23T03:10:42;99298.63;;;19.82;39.54
64189;BME280;50493;50.970;10.082;2022-08-23T03:13:08;99295.22;;;19.80;39.68
64189;BME280;50493;50.970;10.082;2022-08-23T03:15:33;99291.63;;;19.81;39.68
64189;BME280;50493;50.970;10.082;2022-08-23T03:17:58;99285.84;;;19.75;39.58
64189;BME280;50493;50.970;10.082;2022-08-23T03:20:24;99289.63;;;19.70;39.78
64189;BME280;50493;50.970;10.082;2022-08-23T03:22:51;99296.81;;;19.68;39.55
64189;BME280;50493;50.970;10.082;2022-08-23T03:25:16;99291.81;;;19.64;39.80
64189;BME280;50493;50.970;10.082;2022-08-23T03:27:42;99299.56;;;19.67;39.62
64189;BME280;50493;50.970;10.082;2022-08-23T03:30:08;99302.03;;;19.56;39.89
64189;BME280;50493;50.970;10.082;2022-08-23T03:32:34;99299.16;;;19.44;40.07
64189;BME280;50493;50.970;10.082;2022-08-23T03:34:59;99288.94;;;19.38;40.39
64189;BME280;50493;50.970;10.082;2022-08-23T03:37:24;99301.56;;;19.33;40.58
64189;BME280;50493;50.970;10.082;2022-08-23T03:39:51;99302.78;;;19.27;40.68
64189;BME280;50493;50.970;10.082;2022-08-23T03:42:16;99291.84;;;19.17;40.46
64189;BME280;50493;50.970;10.082;2022-08-23T03:44:42;99295.63;;;19.13;40.89
64189;BME280;50493;50.970;10.082;2022-08-23T03:47:07;99307.44;;;19.08;40.46
64189;BME280;50493;50.970;10.082;2022-08-23T03:49:33;99310.00;;;19.09;40.77
64189;BME280;50493;50.970;10.082;2022-08-23T03:51:58;99309.41;;;19.04;40.80
64189;BME280;50493;50.970;10.082;2022-08-23T03:54:24;99310.13;;;18.92;40.68
64189;BME280;50493;50.970;10.082;2022-08-23T03:56:54;99315.28;;;18.95;40.69
64189;BME280;50493;50.970;10.082;2022-08-23T03:59:19;99315.53;;;18.90;40.70
64189;BME280;50493;50.970;10.082;2022-08-23T04:01:45;99319.97;;;18.90;40.74
64189;BME280;50493;50.970;10.082;2022-08-23T04:04:10;99319.28;;;18.86;41.11
64189;BME280;50493;50.970;10.082;2022-08-23T04:06:35;99327.59;;;18.80;41.23
64189;BME280;50493;50.970;10.082;2022-08-23T04:09:01;99318.78;;;18.79;40.92
64189;BME280;50493;50.970;10.082;2022-08-23T04:11:27;99331.28;;;18.77;40.69
64189;BME280;50493;50.970;10.082;2022-08-23T04:13:54;99325.09;;;18.77;40.65
64189;BME280;50493;50.970;10.082;2022-08-23T04:16:20;99330.41;;;18.77;41.17
64189;BME280;50493;50.970;10.082;2022-08-23T04:18:45;99341.09;;;18.75;41.10
64189;BME280;50493;50.970;10.082;2022-08-23T04:21:13;99343.91;;;18.72;40.76
64189;BME280;50493;50.970;10.082;2022-08-23T04:23:39;99335.78;;;18.75;40.67
64189;BME280;50493;50.970;10.082;2022-08-23T04:26:05;99338.44;;;18.75;40.95
64189;BME280;50493;50.970;10.082;2022-08-23T04:28:31;99334.06;;;18.74;40.65
64189;BME280;50493;50.970;10.082;2022-08-23T04:30:58;99331.94;;;18.65;40.66
64189;BME280;50493;50.970;10.082;2022-08-23T04:33:24;99341.00;;;18.61;41.07
64189;BME280;50493;50.970;10.082;2022-08-23T04:35:50;99338.94;;;18.66;40.39
64189;BME280;50493;50.970;10.082;2022-08-23T04:38:15;99342.72;;;18.62;40.76
64189;BME280;50493;50.970;10.082;2022-08-23T04:40:41;99339.63;;;18.53;41.04
64189;BME280;50493;50.970;10.082;2022-08-23T04:43:25;99340.25;;;18.59;40.84
64189;BME280;50493;50.970;10.082;2022-08-23T04:45:51;99342.53;;;18.65;40.66
64189;BME280;50493;50.970;10.082;2022-08-23T04:48:18;99353.28;;;18.62;40.16
64189;BME280;50493;50.970;10.082;2022-08-23T04:50:43;99350.22;;;18.53;40.70
64189;BME280;50493;50.970;10.082;2022-08-23T04:53:09;99351.06;;;18.54;40.82
64189;BME280;50493;50.970;10.082;2022-08-23T04:55:36;99355.34;;;18.57;40.62
64189;BME280;50493;50.970;10.082;2022-08-23T04:58:02;99344.53;;;19.08;39.15
64189;BME280;50493;50.970;10.082;2022-08-23T05:00:27;99350.69;;;19.69;37.62
64189;BME280;50493;50.970;10.082;2022-08-23T05:02:52;99347.59;;;20.05;36.91
64189;BME280;50493;50.970;10.082;2022-08-23T05:05:19;99356.63;;;20.46;36.17
64189;BME280;50493;50.970;10.082;2022-08-23T05:07:44;99359.25;;;20.88;35.26
64189;BME280;50493;50.970;10.082;2022-08-23T05:10:12;99361.41;;;21.23;34.55
64189;BME280;50493;50.970;10.082;2022-08-23T05:12:38;99362.47;;;21.48;34.02
64189;BME280;50493;50.970;10.082;2022-08-23T05:15:04;99370.94;;;21.80;33.54
64189;BME280;50493;50.970;10.082;2022-08-23T05:17:29;99368.47;;;22.03;33.12
64189;BME280;50493;50.970;10.082;2022-08-23T05:19:55;99368.25;;;22.32;32.29
64189;BME280;50493;50.970;10.082;2022-08-23T05:22:22;99380.81;;;22.80;31.28
64189;BME280;50493;50.970;10.082;2022-08-23T05:24:47;99376.56;;;23.14;30.94
64189;BME280;50493;50.970;10.082;2022-08-23T05:27:12;99369.53;;;23.13;30.87
64189;BME280;50493;50.970;10.082;2022-08-23T05:29:38;99376.34;;;23.29;30.80
64189;BME280;50493;50.970;10.082;2022-08-23T05:32:04;99374.00;;;23.84;29.36
64189;BME280;50493;50.970;10.082;2022-08-23T05:34:30;99369.28;;;23.99;30.60
64189;BME280;50493;50.970;10.082;2022-08-23T05:36:56;99370.88;;;24.01;29.45
64189;BME280;50493;50.970;10.082;2022-08-23T05:39:22;99369.53;;;23.96;29.12
64189;BME280;50493;50.970;10.082;2022-08-23T05:41:48;99372.66;;;23.78;29.37
64189;BME280;50493;50.970;10.082;2022-08-23T05:44:13;99374.13;;;24.28;28.51
64189;BME280;50493;50.970;10.082;2022-08-23T05:46:39;99371.97;;;24.33;28.79
64189;BME280;50493;50.970;10.082;2022-08-23T05:49:04;99374.13;;;24.73;33.29
64189;BME280;50493;50.970;10.082;2022-08-23T05:51:32;99380.44;;;24.83;28.53
64189;BME280;50493;50.970;10.082;2022-08-23T05:53:59;99376.53;;;24.87;27.90
64189;BME280;50493;50.970;10.082;2022-08-23T05:56:28;99382.34;;;25.04;27.62
64189;BME280;50493;50.970;10.082;2022-08-23T05:58:55;99387.22;;;25.31;27.27
64189;BME280;50493;50.970;10.082;2022-08-23T06:01:23;99398.81;;;25.20;27.21
64189;BME280;50493;50.970;10.082;2022-08-23T06:03:49;99391.19;;;25.48;26.98
64189;BME280;50493;50.970;10.082;2022-08-23T06:06:15;99394.69;;;25.49;26.85
64189;BME280;50493;50.970;10.082;2022-08-23T06:08:42;99394.69;;;25.16;27.47
64189;BME280;50493;50.970;10.082;2022-08-23T06:11:12;99396.94;;;25.65;26.78
64189;BME280;50493;50.970;10.082;2022-08-23T06:13:42;99403.81;;;26.31;26.36
64189;BME280;50493;50.970;10.082;2022-08-23T06:16:08;99401.41;;;26.28;25.86
64189;BME280;50493;50.970;10.082;2022-08-23T06:18:34;99404.94;;;26.07;26.29
64189;BME280;50493;50.970;10.082;2022-08-23T06:21:02;99400.06;;;26.12;25.88
64189;BME280;50493;50.970;10.082;2022-08-23T06:23:27;99406.56;;;26.19;26.04
64189;BME280;50493;50.970;10.082;2022-08-23T06:25:53;99400.97;;;25.80;26.61
64189;BME280;50493;50.970;10.082;2022-08-23T06:28:18;99400.25;;;26.51;27.65
64189;BME280;50493;50.970;10.082;2022-08-23T06:30:45;99404.34;;;26.24;26.03
64189;BME280;50493;50.970;10.082;2022-08-23T06:33:11;99401.84;;;26.64;29.43
64189;BME280;50493;50.970;10.082;2022-08-23T06:35:37;99403.50;;;27.05;28.76
64189;BME280;50493;50.970;10.082;2022-08-23T06:38:03;99395.88;;;27.01;27.04
64189;BME280;50493;50.970;10.082;2022-08-23T06:40:28;99392.81;;;27.45;24.99
64189;BME280;50493;50.970;10.082;2022-08-23T06:42:54;99396.72;;;27.70;27.52
64189;BME280;50493;50.970;10.082;2022-08-23T06:45:19;99398.97;;;27.16;25.14
64189;BME280;50493;50.970;10.082;2022-08-23T06:47:46;99395.59;;;27.33;25.29
64189;BME280;50493;50.970;10.082;2022-08-23T06:50:11;99391.38;;;27.21;25.38
64189;BME280;50493;50.970;10.082;2022-08-23T06:52:36;99397.88;;;27.38;25.44
64189;BME280;50493;50.970;10.082;2022-08-23T06:55:02;99400.44;;;27.69;24.74
64189;BME280;50493;50.970;10.082;2022-08-23T06:57:28;99395.41;;;28.41;27.11
64189;BME280;50493;50.970;10.082;2022-08-23T06:59:53;99393.06;;;28.28;23.88
64189;BME280;50493;50.970;10.082;2022-08-23T07:02:19;99396.34;;;27.45;24.42
64189;BME280;50493;50.970;10.082;2022-08-23T07:04:45;99389.41;;;27.33;26.87
64189;BME280;50493;50.970;10.082;2022-08-23T07:07:18;99391.78;;;27.36;24.78
64189;BME280;50493;50.970;10.082;2022-08-23T07:09:43;99387.25;;;28.88;26.44
64189;BME280;50493;50.970;10.082;2022-08-23T07:12:08;99398.63;;;28.17;27.55
64189;BME280;50493;50.970;10.082;2022-08-23T07:14:36;99401.41;;;27.29;28.27
64189;BME280;50493;50.970;10.082;2022-08-23T07:17:02;99394.69;;;28.11;25.88
64189;BME280;50493;50.970;10.082;2022-08-23T07:19:30;99393.22;;;29.28;22.91
64189;BME280;50493;50.970;10.082;2022-08-23T07:21:58;99401.59;;;29.61;25.13
64189;BME280;50493;50.970;10.082;2022-08-23T07:24:25;99402.72;;;29.77;25.15
64189;BME280;50493;50.970;10.082;2022-08-23T07:26:51;99401.34;;;29.54;24.16
64189;BME280;50493;50.970;10.082;2022-08-23T07:29:17;99393.22;;;29.46;22.80
64189;BME280;50493;50.970;10.082;2022-08-23T07:31:46;99399.91;;;29.86;22.16
64189;BME280;50493;50.970;10.082;2022-08-23T07:34:12;99399.72;;;29.62;22.43
64189;BME280;50493;50.970;10.082;2022-08-23T07:36:40;99400.59;;;30.15;24.78
64189;BME280;50493;50.970;10.082;2022-08-23T07:39:08;99400.56;;;30.06;24.58
64189;BME280;50493;50.970;10.082;2022-08-23T07:41:35;99388.03;;;30.23;21.37
64189;BME280;50493;50.970;10.082;2022-08-23T07:44:04;99387.19;;;29.97;21.50
64189;BME280;50493;50.970;10.082;2022-08-23T07:46:30;99382.53;;;30.76;23.76
64189;BME280;50493;50.970;10.082;2022-08-23T07:48:58;99380.38;;;30.11;21.57
64189;BME280;50493;50.970;10.082;2022-08-23T07:51:24;99389.09;;;30.31;22.65
64189;BME280;50493;50.970;10.082;2022-08-23T07:53:50;99390.31;;;30.79;23.58
64189;BME280;50493;50.970;10.082;2022-08-23T07:56:18;99387.94;;;30.76;23.16
64189;BME280;50493;50.970;10.082;2022-08-23T07:58:44;99391.53;;;31.18;20.68
64189;BME280;50493;50.970;10.082;2022-08-23T08:01:11;99400.19;;;30.70;21.67
64189;BME280;50493;50.970;10.082;2022-08-23T08:03:39;99394.38;;;30.14;21.98
64189;BME280;50493;50.970;10.082;2022-08-23T08:06:07;99398.38;;;29.84;22.39
64189;BME280;50493;50.970;10.082;2022-08-23T08:08:32;99406.00;;;30.41;23.02
64189;BME280;50493;50.970;10.082;2022-08-23T08:10:57;99407.97;;;29.60;23.55
64189;BME280;50493;50.970;10.082;2022-08-23T08:13:24;99409.00;;;28.95;23.90
64189;BME280;50493;50.970;10.082;2022-08-23T08:15:49;99402.00;;;29.93;22.21
64189;BME280;50493;50.970;10.082;2022-08-23T08:18:15;99403.59;;;29.41;23.84
64189;BME280;50493;50.970;10.082;2022-08-23T08:20:42;99406.81;;;29.63;22.65
64189;BME280;50493;50.970;10.082;2022-08-23T08:23:07;99403.47;;;29.87;23.20
64189;BME280;50493;50.970;10.082;2022-08-23T08:25:32;99402.94;;;30.36;22.67
64189;BME280;50493;50.970;10.082;2022-08-23T08:27:58;99401.88;;;30.29;22.54
64189;BME280;50493;50.970;10.082;2022-08-23T08:30:25;99402.44;;;30.40;22.08
64189;BME280;50493;50.970;10.082;2022-08-23T08:32:51;99407.38;;;31.04;21.13
64189;BME280;50493;50.970;10.082;2022-08-23T08:35:16;99407.56;;;31.03;20.95
64189;BME280;50493;50.970;10.082;2022-08-23T08:37:41;99404.28;;;30.32;22.25
64189;BME280;50493;50.970;10.082;2022-08-23T08:40:07;99407.78;;;29.80;22.21
64189;BME280;50493;50.970;10.082;2022-08-23T08:42:45;99407.22;;;30.55;21.95
64189;BME280;50493;50.970;10.082;2022-08-23T08:45:17;99409.63;;;31.25;20.99
64189;BME280;50493;50.970;10.082;2022-08-23T08:47:49;99407.25;;;32.13;20.31
64189;BME280;50493;50.970;10.082;2022-08-23T08:50:19;99410.94;;;31.05;20.45
64189;BME280;50493;50.970;10.082;2022-08-23T08:52:51;99413.94;;;30.94;20.39
64189;BME280;50493;50.970;10.082;2022-08-23T08:55:21;99408.31;;;31.46;20.98
64189;BME280;50493;50.970;10.082;2022-08-23T08:57:48;99412.34;;;31.34;21.25
64189;BME280;50493;50.970;10.082;2022-08-23T09:00:17;99408.72;;;31.00;20.69
64189;BME280;50493;50.970;10.082;2022-08-23T09:02:43;99400.84;;;31.81;20.93
64189;BME280;50493;50.970;10.082;2022-08-23T09:05:13;99403.94;;;31.45;20.68
64189;BME280;50493;50.970;10.082;2022-08-23T09:07:45;99414.03;;;30.75;20.63
64189;BME280;50493;50.970;10.082;2022-08-23T09:10:30;99406.16;;;29.69;22.10
64189;BME280;50493;50.970;10.082;2022-08-23T09:13:13;99400.19;;;31.46;21.04
64189;BME280;50493;50.970;10.082;2022-08-23T09:15:47;99397.13;;;31.24;19.83
64189;BME280;50493;50.970;10.082;2022-08-23T09:18:17;99395.84;;;31.53;21.50
64189;BME280;50493;50.970;10.082;2022-08-23T09:20:46;99395.50;;;31.48;19.24
64189;BME280;50493;50.970;10.082;2022-08-23T09:23:16;99388.69;;;29.91;22.90
64189;BME280;50493;50.970;10.082;2022-08-23T09:25:50;99384.34;;;29.72;21.55
64189;BME280;50493;50.970;10.082;2022-08-23T09:28:15;99394.94;;;29.55;20.69
64189;BME280;50493;50.970;10.082;2022-08-23T09:30:47;99393.41;;;30.23;20.44
64189;BME280;50493;50.970;10.082;2022-08-23T09:33:14;99393.75;;;30.98;21.89
64189;BME280;50493;50.970;10.082;2022-08-23T09:35:40;99395.16;;;30.06;20.86
64189;BME280;50493;50.970;10.082;2022-08-23T09:38:16;99385.72;;;29.04;22.07
64189;BME280;50493;50.970;10.082;2022-08-23T09:40:48;99383.31;;;31.19;21.43
64189;BME280;50493;50.970;10.082;2022-08-23T09:43:17;99375.22;;;31.61;21.26
64189;BME280;50493;50.970;10.082;2022-08-23T09:45:54;99370.09;;;32.07;18.28
64189;BME280;50493;50.970;10.082;2022-08-23T09:48:32;99376.06;;;31.45;19.52
64189;BME280;50493;50.970;10.082;2022-08-23T09:51:05;99379.84;;;32.16;20.79
64189;BME280;50493;50.970;10.082;2022-08-23T09:53:33;99378.25;;;31.90;20.93
64189;BME280;50493;50.970;10.082;2022-08-23T09:56:11;99367.75;;;31.96;18.25
64189;BME280;50493;50.970;10.082;2022-08-23T09:58:40;99368.66;;;31.30;19.49
64189;BME280;50493;50.970;10.082;2022-08-23T10:01:11;99374.03;;;29.13;20.60
64189;BME280;50493;50.970;10.082;2022-08-23T10:03:39;99373.34;;;31.69;21.25
64189;BME280;50493;50.970;10.082;2022-08-23T10:06:05;99375.34;;;32.00;18.87
64189;BME280;50493;50.970;10.082;2022-08-23T10:08:36;99370.13;;;31.74;21.41
64189;BME280;50493;50.970;10.082;2022-08-23T10:11:17;99369.88;;;32.33;19.78
64189;BME280;50493;50.970;10.082;2022-08-23T10:13:44;99371.94;;;32.54;20.41
64189;BME280;50493;50.970;10.082;2022-08-23T10:16:17;99366.78;;;31.47;18.47
64189;BME280;50493;50.970;10.082;2022-08-23T10:18:53;99365.09;;;31.46;19.41
64189;BME280;50493;50.970;10.082;2022-08-23T10:21:24;99362.38;;;31.63;20.90
64189;BME280;50493;50.970;10.082;2022-08-23T10:24:21;99358.31;;;32.39;20.89
64189;BME280;50493;50.970;10.082;2022-08-23T10:26:58;99364.16;;;32.91;19.38
64189;BME280;50493;50.970;10.082;2022-08-23T10:29:35;99361.28;;;33.16;20.41
64189;BME280;50493;50.970;10.082;2022-08-23T10:32:10;99360.72;;;31.62;18.44
64189;BME280;50493;50.970;10.082;2022-08-23T10:34:48;99355.41;;;32.81;20.84
64189;BME280;50493;50.970;10.082;2022-08-23T10:37:28;99360.31;;;32.85;19.85
64189;BME280;50493;50.970;10.082;2022-08-23T10:40:03;99351.91;;;32.72;17.14
64189;BME280;50493;50.970;10.082;2022-08-23T10:42:38;99346.38;;;33.20;19.33
64189;BME280;50493;50.970;10.082;2022-08-23T10:45:15;99349.19;;;33.50;16.69
64189;BME280;50493;50.970;10.082;2022-08-23T10:47:52;99357.06;;;30.28;20.82
64189;BME280;50493;50.970;10.082;2022-08-23T10:50:25;99351.38;;;31.89;21.78
64189;BME280;50493;50.970;10.082;2022-08-23T10:52:54;99346.16;;;32.67;20.62
64189;BME280;50493;50.970;10.082;2022-08-23T10:55:25;99350.00;;;32.81;17.95
64189;BME280;50493;50.970;10.082;2022-08-23T10:58:23;99339.94;;;32.35;21.79
64189;BME280;50493;50.970;10.082;2022-08-23T11:00:51;99345.09;;;32.05;17.79
64189;BME280;50493;50.970;10.082;2022-08-23T11:03:22;99346.38;;;32.25;21.55
64189;BME280;50493;50.970;10.082;2022-08-23T11:08:57;99336.59;;;33.72;20.38
64189;BME280;50493;50.970;10.082;2022-08-23T11:11:38;99337.75;;;33.16;17.15
64189;BME280;50493;50.970;10.082;2022-08-23T11:14:06;99342.75;;;33.04;17.90
64189;BME280;50493;50.970;10.082;2022-08-23T11:16:33;99340.78;;;31.13;20.30
64189;BME280;50493;50.970;10.082;2022-08-23T11:18:59;99336.72;;;31.75;18.36
64189;BME280;50493;50.970;10.082;2022-08-23T11:21:45;99337.13;;;30.63;20.80
64189;BME280;50493;50.970;10.082;2022-08-23T11:24:30;99330.78;;;31.80;19.43
64189;BME280;50493;50.970;10.082;2022-08-23T11:27:03;99326.59;;;31.61;21.73
64189;BME280;50493;50.970;10.082;2022-08-23T11:29:31;99332.75;;;30.70;20.25
64189;BME280;50493;50.970;10.082;2022-08-23T11:32:01;99322.44;;;32.06;20.16
64189;BME280;50493;50.970;10.082;2022-08-23T11:34:30;99323.97;;;32.48;20.91
64189;BME280;50493;50.970;10.082;2022-08-23T11:37:26;99323.75;;;32.81;21.17
64189;BME280;50493;50.970;10.082;2022-08-23T11:40:00;99328.13;;;30.46;20.12
64189;BME280;50493;50.970;10.082;2022-08-23T11:42:44;99323.59;;;31.39;23.45
64189;BME280;50493;50.970;10.082;2022-08-23T11:45:22;99332.66;;;30.97;19.65
64189;BME280;50493;50.970;10.082;2022-08-23T11:47:52;99319.47;;;31.84;22.92
64189;BME280;50493;50.970;10.082;2022-08-23T11:50:32;99325.94;;;31.17;19.93
64189;BME280;50493;50.970;10.082;2022-08-23T11:53:12;99318.81;;;32.22;22.98
64189;BME280;50493;50.970;10.082;2022-08-23T11:59:02;99321.44;;;32.78;22.00
64189;BME280;50493;50.970;10.082;2022-08-23T12:01:38;99313.78;;;33.28;19.63
64189;BME280;50493;50.970;10.082;2022-08-23T12:04:06;99301.72;;;32.38;18.34
64189;BME280;50493;50.970;10.082;2022-08-23T12:06:39;99318.16;;;31.47;19.53
64189;BME280;50493;50.970;10.082;2022-08-23T12:09:10;99326.34;;;30.63;19.75
64189;BME280;50493;50.970;10.082;2022-08-23T12:12:08;99311.38;;;31.68;23.64
64189;BME280;50493;50.970;10.082;2022-08-23T12:14:49;99305.84;;;32.80;22.87
64189;BME280;50493;50.970;10.082;2022-08-23T12:17:55;99304.41;;;33.39;18.61
64189;BME280;50493;50.970;10.082;2022-08-23T12:20:30;99298.91;;;32.54;18.56
64189;BME280;50493;50.970;10.082;2022-08-23T12:23:02;99299.59;;;32.56;22.74
64189;BME280;50493;50.970;10.082;2022-08-23T12:25:30;99303.56;;;33.38;19.07
64189;BME280;50493;50.970;10.082;2022-08-23T12:28:04;99307.53;;;33.66;22.39
64189;BME280;50493;50.970;10.082;2022-08-23T12:30:34;99304.41;;;33.39;23.14
64189;BME280;50493;50.970;10.082;2022-08-23T12:33:07;99304.31;;;33.32;17.61
64189;BME280;50493;50.970;10.082;2022-08-23T12:35:40;99304.66;;;30.81;20.55
64189;BME280;50493;50.970;10.082;2022-08-23T12:38:12;99296.88;;;31.61;23.24
64189;BME280;50493;50.970;10.082;2022-08-23T12:40:43;99299.19;;;32.36;18.72
64189;BME280;50493;50.970;10.082;2022-08-23T12:43:19;99304.66;;;33.06;22.60
64189;BME280;50493;50.970;10.082;2022-08-23T12:45:50;99301.75;;;33.31;22.28
64189;BME280;50493;50.970;10.082;2022-08-23T12:48:21;99300.78;;;33.23;24.21
64189;BME280;50493;50.970;10.082;2022-08-23T12:50:52;99299.94;;;33.61;21.49
64189;BME280;50493;50.970;10.082;2022-08-23T12:53:26;99299.53;;;33.11;22.39
64189;BME280;50493;50.970;10.082;2022-08-23T12:55:59;99300.56;;;33.10;23.63
64189;BME280;50493;50.970;10.082;2022-08-23T12:58:27;99302.31;;;29.93;20.47
64189;BME280;50493;50.970;10.082;2022-08-23T13:00:55;99303.25;;;30.61;21.92
64189;BME280;50493;50.970;10.082;2022-08-23T13:03:27;99300.94;;;32.21;19.27
64189;BME280;50493;50.970;10.082;2022-08-23T13:05:56;99300.69;;;32.94;24.94